sensor_id;sensor_type;location;lat;lon;timestamp;P1;durP1;ratioP1;P2;durP2;ratioP2
4738;SDS011;2383;48.632;10.156;2023-02-13T00:03:28;61.97;;;28.87;;
4738;SDS011;2383;48.632;10.156;2023-02-13T00:07:30;61.23;;;30.13;;
4738;SDS011;2383;48.632;10.156;2023-02-13T00:11:32;62.93;;;29.07;;
4738;SDS011;2383;48.632;10.156;2023-02-13T00:15:34;63.13;;;29.60;;
4738;SDS011;2383;48.632;10.156;2023-02-13T00:19:36;59.83;;;27.57;;
4738;SDS011;2383;48.632;10.156;2023-02-13T00:23:38;61.93;;;29.10;;
4738;SDS011;2383;48.632;10.156;2023-02-13T00:27:40;68.10;;;29.23;;
4738;SDS011;2383;48.632;10.156;2023-02-13T00:31:42;63.57;;;28.77;;
4738;SDS011;2383;48.632;10.156;2023-02-13T00:35:44;63.60;;;29.63;;
4738;SDS011;2383;48.632;10.156;2023-02-13T00:39:46;80.37;;;31.03;;
4738;SDS011;2383;48.632;10.156;2023-02-13T00:43:50;67.10;;;30.43;;
4738;SDS011;2383;48.632;10.156;2023-02-13T00:47:52;63.13;;;31.07;;
4738;SDS011;2383;48.632;10.156;2023-02-13T00:51:55;76.40;;;35.63;;
4738;SDS011;2383;48.632;10.156;2023-02-13T00:55:57;69.90;;;31.20;;
4738;SDS011;2383;48.632;10.156;2023-02-13T00:59:59;68.47;;;32.57;;
4738;SDS011;2383;48.632;10.156;2023-02-13T01:04:01;62.83;;;32.20;;
4738;SDS011;2383;48.632;10.156;2023-02-13T01:08:04;99.07;;;44.73;;
4738;SDS011;2383;48.632;10.156;2023-02-13T01:12:06;85.37;;;40.40;;
4738;SDS011;2383;48.632;10.156;2023-02-13T01:16:08;65.53;;;32.40;;
4738;SDS011;2383;48.632;10.156;2023-02-13T01:20:11;64.60;;;30.10;;
4738;SDS011;2383;48.632;10.156;2023-02-13T01:24:13;58.57;;;28.17;;
4738;SDS011;2383;48.632;10.156;2023-02-13T01:28:16;56.57;;;27.00;;
4738;SDS011;2383;48.632;10.156;2023-02-13T01:32:18;58.53;;;28.63;;
4738;SDS011;2383;48.632;10.156;2023-02-13T01:36:20;55.20;;;27.57;;
4738;SDS011;2383;48.632;10.156;2023-02-13T01:40:22;58.43;;;28.83;;
4738;SDS011;2383;48.632;10.156;2023-02-13T01:48:46;57.47;;;29.30;;
4738;SDS011;2383;48.632;10.156;2023-02-13T01:57:13;56.37;;;27.93;;
4738;SDS011;2383;48.632;10.156;2023-02-13T02:01:19;51.63;;;26.33;;
4738;SDS011;2383;48.632;10.156;2023-02-13T02:05:24;48.70;;;26.47;;
4738;SDS011;2383;48.632;10.156;2023-02-13T02:09:36;50.17;;;26.67;;
4738;SDS011;2383;48.632;10.156;2023-02-13T02:13:41;52.50;;;26.90;;
4738;SDS011;2383;48.632;10.156;2023-02-13T02:17:44;60.70;;;27.27;;
4738;SDS011;2383;48.632;10.156;2023-02-13T02:53:28;57.60;;;24.03;;
4738;SDS011;2383;48.632;10.156;2023-02-13T02:57:33;76.97;;;24.00;;
4738;SDS011;2383;48.632;10.156;2023-02-13T03:02:06;49.30;;;23.57;;
4738;SDS011;2383;48.632;10.156;2023-02-13T03:10:58;73.47;;;20.63;;
4738;SDS011;2383;48.632;10.156;2023-02-13T03:15:18;38.60;;;19.77;;
4738;SDS011;2383;48.632;10.156;2023-02-13T03:37:26;34.23;;;17.70;;
4738;SDS011;2383;48.632;10.156;2023-02-13T03:42:00;29.13;;;16.37;;
4738;SDS011;2383;48.632;10.156;2023-02-13T03:46:06;31.90;;;16.07;;
4738;SDS011;2383;48.632;10.156;2023-02-13T03:50:10;42.43;;;17.90;;
4738;SDS011;2383;48.632;10.156;2023-02-13T03:58:51;30.23;;;18.57;;
4738;SDS011;2383;48.632;10.156;2023-02-13T04:07:27;25.37;;;15.80;;
4738;SDS011;2383;48.632;10.156;2023-02-13T04:11:34;24.73;;;15.30;;
4738;SDS011;2383;48.632;10.156;2023-02-13T04:15:45;23.57;;;14.03;;
4738;SDS011;2383;48.632;10.156;2023-02-13T04:19:51;23.00;;;14.67;;
4738;SDS011;2383;48.632;10.156;2023-02-13T04:23:53;29.00;;;14.87;;
4738;SDS011;2383;48.632;10.156;2023-02-13T04:27:55;24.07;;;15.03;;
4738;SDS011;2383;48.632;10.156;2023-02-13T04:31:57;23.30;;;14.80;;
4738;SDS011;2383;48.632;10.156;2023-02-13T04:35:59;34.30;;;14.83;;
4738;SDS011;2383;48.632;10.156;2023-02-13T04:40:01;32.40;;;15.17;;
4738;SDS011;2383;48.632;10.156;2023-02-13T04:44:03;24.63;;;14.97;;
4738;SDS011;2383;48.632;10.156;2023-02-13T04:48:05;26.77;;;16.00;;
4738;SDS011;2383;48.632;10.156;2023-02-13T04:52:07;25.37;;;15.07;;
4738;SDS011;2383;48.632;10.156;2023-02-13T04:56:09;22.87;;;14.57;;
4738;SDS011;2383;48.632;10.156;2023-02-13T05:00:11;27.43;;;15.20;;
4738;SDS011;2383;48.632;10.156;2023-02-13T05:04:14;25.20;;;15.73;;
4738;SDS011;2383;48.632;10.156;2023-02-13T05:08:17;24.63;;;15.77;;
4738;SDS011;2383;48.632;10.156;2023-02-13T05:12:19;26.30;;;16.13;;
4738;SDS011;2383;48.632;10.156;2023-02-13T05:16:21;28.47;;;15.50;;
4738;SDS011;2383;48.632;10.156;2023-02-13T05:20:23;22.37;;;14.33;;
4738;SDS011;2383;48.632;10.156;2023-02-13T05:24:25;21.03;;;14.40;;
4738;SDS011;2383;48.632;10.156;2023-02-13T05:28:27;22.60;;;14.23;;
4738;SDS011;2383;48.632;10.156;2023-02-13T05:32:48;21.47;;;14.07;;
4738;SDS011;2383;48.632;10.156;2023-02-13T05:36:52;24.10;;;15.33;;
4738;SDS011;2383;48.632;10.156;2023-02-13T05:40:54;21.57;;;14.57;;
4738;SDS011;2383;48.632;10.156;2023-02-13T05:45:00;18.87;;;12.50;;
4738;SDS011;2383;48.632;10.156;2023-02-13T05:49:02;18.13;;;11.97;;
4738;SDS011;2383;48.632;10.156;2023-02-13T05:53:05;18.23;;;12.33;;
4738;SDS011;2383;48.632;10.156;2023-02-13T05:57:07;18.03;;;12.50;;
4738;SDS011;2383;48.632;10.156;2023-02-13T06:01:09;19.40;;;11.93;;
4738;SDS011;2383;48.632;10.156;2023-02-13T06:05:11;20.23;;;12.17;;
4738;SDS011;2383;48.632;10.156;2023-02-13T06:09:14;19.43;;;12.57;;
4738;SDS011;2383;48.632;10.156;2023-02-13T06:13:16;22.50;;;12.53;;
4738;SDS011;2383;48.632;10.156;2023-02-13T06:17:19;21.63;;;13.37;;
4738;SDS011;2383;48.632;10.156;2023-02-13T06:21:21;21.10;;;13.33;;
4738;SDS011;2383;48.632;10.156;2023-02-13T06:25:23;22.50;;;13.90;;
4738;SDS011;2383;48.632;10.156;2023-02-13T06:29:25;20.60;;;13.53;;
4738;SDS011;2383;48.632;10.156;2023-02-13T06:33:27;20.33;;;12.13;;
4738;SDS011;2383;48.632;10.156;2023-02-13T06:37:29;21.03;;;13.13;;
4738;SDS011;2383;48.632;10.156;2023-02-13T06:41:31;23.63;;;14.43;;
4738;SDS011;2383;48.632;10.156;2023-02-13T06:45:33;22.00;;;13.63;;
4738;SDS011;2383;48.632;10.156;2023-02-13T06:49:35;25.87;;;14.27;;
4738;SDS011;2383;48.632;10.156;2023-02-13T06:53:37;27.80;;;14.90;;
4738;SDS011;2383;48.632;10.156;2023-02-13T06:57:40;22.10;;;13.73;;
4738;SDS011;2383;48.632;10.156;2023-02-13T07:01:43;24.40;;;14.30;;
4738;SDS011;2383;48.632;10.156;2023-02-13T07:05:45;21.30;;;12.67;;
4738;SDS011;2383;48.632;10.156;2023-02-13T07:09:47;21.23;;;12.73;;
4738;SDS011;2383;48.632;10.156;2023-02-13T07:13:49;21.43;;;13.43;;
4738;SDS011;2383;48.632;10.156;2023-02-13T07:17:58;22.33;;;13.40;;
4738;SDS011;2383;48.632;10.156;2023-02-13T07:22:00;22.60;;;12.90;;
4738;SDS011;2383;48.632;10.156;2023-02-13T07:26:02;21.73;;;13.17;;
4738;SDS011;2383;48.632;10.156;2023-02-13T07:30:05;38.10;;;22.13;;
4738;SDS011;2383;48.632;10.156;2023-02-13T07:34:08;21.63;;;13.73;;
4738;SDS011;2383;48.632;10.156;2023-02-13T07:38:10;23.43;;;13.07;;
4738;SDS011;2383;48.632;10.156;2023-02-13T07:42:12;23.07;;;14.93;;
4738;SDS011;2383;48.632;10.156;2023-02-13T07:46:14;21.27;;;13.30;;
4738;SDS011;2383;48.632;10.156;2023-02-13T07:50:16;18.23;;;11.23;;
4738;SDS011;2383;48.632;10.156;2023-02-13T07:54:18;21.67;;;12.60;;
4738;SDS011;2383;48.632;10.156;2023-02-13T07:58:20;22.63;;;13.13;;
4738;SDS011;2383;48.632;10.156;2023-02-13T08:02:22;25.03;;;14.70;;
4738;SDS011;2383;48.632;10.156;2023-02-13T08:06:24;23.33;;;14.10;;
4738;SDS011;2383;48.632;10.156;2023-02-13T08:10:26;20.13;;;12.50;;
4738;SDS011;2383;48.632;10.156;2023-02-13T08:14:47;19.93;;;11.73;;
4738;SDS011;2383;48.632;10.156;2023-02-13T08:18:49;20.30;;;12.30;;
4738;SDS011;2383;48.632;10.156;2023-02-13T08:22:51;21.77;;;13.33;;
4738;SDS011;2383;48.632;10.156;2023-02-13T08:26:54;23.20;;;13.73;;
4738;SDS011;2383;48.632;10.156;2023-02-13T08:30:56;22.60;;;13.03;;
4738;SDS011;2383;48.632;10.156;2023-02-13T08:34:58;18.90;;;12.30;;
4738;SDS011;2383;48.632;10.156;2023-02-13T08:39:00;19.60;;;11.73;;
4738;SDS011;2383;48.632;10.156;2023-02-13T08:43:03;23.53;;;14.07;;
4738;SDS011;2383;48.632;10.156;2023-02-13T08:47:06;20.90;;;12.90;;
4738;SDS011;2383;48.632;10.156;2023-02-13T08:51:10;19.97;;;12.57;;
4738;SDS011;2383;48.632;10.156;2023-02-13T08:55:13;21.93;;;13.33;;
4738;SDS011;2383;48.632;10.156;2023-02-13T08:59:15;19.50;;;11.70;;
4738;SDS011;2383;48.632;10.156;2023-02-13T09:03:17;22.87;;;13.90;;
4738;SDS011;2383;48.632;10.156;2023-02-13T09:07:19;20.57;;;13.23;;
4738;SDS011;2383;48.632;10.156;2023-02-13T09:11:21;24.17;;;13.77;;
4738;SDS011;2383;48.632;10.156;2023-02-13T09:15:23;25.43;;;13.80;;
4738;SDS011;2383;48.632;10.156;2023-02-13T09:19:25;23.27;;;13.57;;
4738;SDS011;2383;48.632;10.156;2023-02-13T09:23:31;25.83;;;14.67;;
4738;SDS011;2383;48.632;10.156;2023-02-13T09:27:35;23.10;;;14.07;;
4738;SDS011;2383;48.632;10.156;2023-02-13T09:31:39;21.53;;;12.53;;
4738;SDS011;2383;48.632;10.156;2023-02-13T09:35:41;27.50;;;14.97;;
4738;SDS011;2383;48.632;10.156;2023-02-13T09:39:44;24.73;;;14.03;;
4738;SDS011;2383;48.632;10.156;2023-02-13T09:43:50;21.73;;;13.03;;
4738;SDS011;2383;48.632;10.156;2023-02-13T09:48:05;21.87;;;12.33;;
4738;SDS011;2383;48.632;10.156;2023-02-13T09:52:11;20.57;;;13.27;;
4738;SDS011;2383;48.632;10.156;2023-02-13T09:56:14;21.93;;;13.07;;
4738;SDS011;2383;48.632;10.156;2023-02-13T10:00:24;23.30;;;13.20;;
4738;SDS011;2383;48.632;10.156;2023-02-13T10:04:42;25.63;;;14.10;;
4738;SDS011;2383;48.632;10.156;2023-02-13T10:09:27;23.57;;;12.63;;
4738;SDS011;2383;48.632;10.156;2023-02-13T10:13:49;24.43;;;13.70;;
4738;SDS011;2383;48.632;10.156;2023-02-13T10:18:11;23.77;;;13.90;;
4738;SDS011;2383;48.632;10.156;2023-02-13T10:22:21;22.60;;;13.13;;
4738;SDS011;2383;48.632;10.156;2023-02-13T10:26:40;23.17;;;13.27;;
4738;SDS011;2383;48.632;10.156;2023-02-13T10:30:53;25.23;;;13.47;;
4738;SDS011;2383;48.632;10.156;2023-02-13T10:34:58;25.80;;;13.83;;
4738;SDS011;2383;48.632;10.156;2023-02-13T10:43:09;23.97;;;12.73;;
4738;SDS011;2383;48.632;10.156;2023-02-13T10:51:53;23.30;;;13.57;;
4738;SDS011;2383;48.632;10.156;2023-02-13T11:04:51;24.10;;;14.47;;
4738;SDS011;2383;48.632;10.156;2023-02-13T11:09:00;42.93;;;22.70;;
4738;SDS011;2383;48.632;10.156;2023-02-13T11:13:13;32.20;;;19.07;;
4738;SDS011;2383;48.632;10.156;2023-02-13T11:17:17;30.00;;;16.40;;
4738;SDS011;2383;48.632;10.156;2023-02-13T11:21:20;23.30;;;15.07;;
4738;SDS011;2383;48.632;10.156;2023-02-13T11:25:24;24.40;;;14.07;;
4738;SDS011;2383;48.632;10.156;2023-02-13T11:29:30;24.03;;;14.27;;
4738;SDS011;2383;48.632;10.156;2023-02-13T11:33:35;27.27;;;15.33;;
4738;SDS011;2383;48.632;10.156;2023-02-13T11:37:37;27.80;;;16.83;;
4738;SDS011;2383;48.632;10.156;2023-02-13T11:41:41;28.27;;;16.33;;
4738;SDS011;2383;48.632;10.156;2023-02-13T11:45:44;28.87;;;15.97;;
4738;SDS011;2383;48.632;10.156;2023-02-13T11:49:46;26.30;;;15.50;;
4738;SDS011;2383;48.632;10.156;2023-02-13T11:53:48;24.67;;;14.40;;
4738;SDS011;2383;48.632;10.156;2023-02-13T11:58:00;23.50;;;14.50;;
4738;SDS011;2383;48.632;10.156;2023-02-13T12:02:13;26.10;;;14.63;;
4738;SDS011;2383;48.632;10.156;2023-02-13T12:06:23;24.77;;;14.53;;
4738;SDS011;2383;48.632;10.156;2023-02-13T12:10:26;26.10;;;14.53;;
4738;SDS011;2383;48.632;10.156;2023-02-13T12:14:31;32.63;;;17.37;;
4738;SDS011;2383;48.632;10.156;2023-02-13T12:18:43;32.67;;;19.67;;
4738;SDS011;2383;48.632;10.156;2023-02-13T12:22:55;27.43;;;16.27;;
4738;SDS011;2383;48.632;10.156;2023-02-13T12:27:08;132.90;;;60.83;;
4738;SDS011;2383;48.632;10.156;2023-02-13T13:06:08;28.17;;;16.03;;
4738;SDS011;2383;48.632;10.156;2023-02-13T13:10:31;28.10;;;17.00;;
4738;SDS011;2383;48.632;10.156;2023-02-13T13:28:10;34.30;;;19.83;;
4738;SDS011;2383;48.632;10.156;2023-02-13T13:32:18;29.03;;;17.23;;
4738;SDS011;2383;48.632;10.156;2023-02-13T13:41:03;26.70;;;15.63;;
4738;SDS011;2383;48.632;10.156;2023-02-13T13:49:23;26.10;;;15.23;;
4738;SDS011;2383;48.632;10.156;2023-02-13T13:53:35;27.27;;;16.30;;
4738;SDS011;2383;48.632;10.156;2023-02-13T13:58:00;27.70;;;15.93;;
4738;SDS011;2383;48.632;10.156;2023-02-13T14:15:00;29.97;;;16.97;;
4738;SDS011;2383;48.632;10.156;2023-02-13T14:19:02;32.57;;;19.47;;
4738;SDS011;2383;48.632;10.156;2023-02-13T14:23:06;31.93;;;17.97;;
4738;SDS011;2383;48.632;10.156;2023-02-13T14:27:14;31.80;;;19.07;;
4738;SDS011;2383;48.632;10.156;2023-02-13T14:31:41;30.17;;;16.50;;
4738;SDS011;2383;48.632;10.156;2023-02-13T14:36:08;31.20;;;18.47;;
4738;SDS011;2383;48.632;10.156;2023-02-13T14:44:52;30.70;;;17.67;;
4738;SDS011;2383;48.632;10.156;2023-02-13T14:49:02;29.33;;;17.27;;
4738;SDS011;2383;48.632;10.156;2023-02-13T14:53:13;34.00;;;18.43;;
4738;SDS011;2383;48.632;10.156;2023-02-13T14:57:27;31.43;;;18.57;;
4738;SDS011;2383;48.632;10.156;2023-02-13T15:01:41;32.90;;;18.27;;
4738;SDS011;2383;48.632;10.156;2023-02-13T15:05:53;35.07;;;19.13;;
4738;SDS011;2383;48.632;10.156;2023-02-13T15:10:14;32.33;;;19.27;;
4738;SDS011;2383;48.632;10.156;2023-02-13T15:14:34;37.73;;;20.80;;
4738;SDS011;2383;48.632;10.156;2023-02-13T15:22:44;34.23;;;20.03;;
4738;SDS011;2383;48.632;10.156;2023-02-13T15:27:00;34.77;;;21.33;;
4738;SDS011;2383;48.632;10.156;2023-02-13T15:31:05;37.17;;;21.10;;
4738;SDS011;2383;48.632;10.156;2023-02-13T15:35:24;34.93;;;19.43;;
4738;SDS011;2383;48.632;10.156;2023-02-13T15:39:29;49.77;;;29.40;;
4738;SDS011;2383;48.632;10.156;2023-02-13T15:47:38;31.43;;;18.93;;
4738;SDS011;2383;48.632;10.156;2023-02-13T15:51:43;31.67;;;18.93;;
4738;SDS011;2383;48.632;10.156;2023-02-13T15:56:00;30.67;;;18.03;;
4738;SDS011;2383;48.632;10.156;2023-02-13T16:00:05;33.57;;;18.87;;
4738;SDS011;2383;48.632;10.156;2023-02-13T16:04:14;31.80;;;18.27;;
4738;SDS011;2383;48.632;10.156;2023-02-13T16:08:26;33.43;;;21.00;;
4738;SDS011;2383;48.632;10.156;2023-02-13T16:12:30;36.23;;;19.13;;
4738;SDS011;2383;48.632;10.156;2023-02-13T16:16:43;43.73;;;27.93;;
4738;SDS011;2383;48.632;10.156;2023-02-13T16:20:46;38.43;;;21.50;;
4738;SDS011;2383;48.632;10.156;2023-02-13T16:24:59;34.43;;;20.70;;
4738;SDS011;2383;48.632;10.156;2023-02-13T16:29:07;34.57;;;19.70;;
4738;SDS011;2383;48.632;10.156;2023-02-13T16:37:31;40.33;;;25.23;;
4738;SDS011;2383;48.632;10.156;2023-02-13T16:41:34;37.40;;;20.43;;
4738;SDS011;2383;48.632;10.156;2023-02-13T16:45:36;42.50;;;24.87;;
4738;SDS011;2383;48.632;10.156;2023-02-13T16:49:38;34.97;;;21.07;;
4738;SDS011;2383;48.632;10.156;2023-02-13T16:53:40;41.53;;;22.93;;
4738;SDS011;2383;48.632;10.156;2023-02-13T16:57:42;49.47;;;24.07;;
4738;SDS011;2383;48.632;10.156;2023-02-13T17:01:45;41.93;;;23.40;;
4738;SDS011;2383;48.632;10.156;2023-02-13T17:05:47;41.47;;;26.10;;
4738;SDS011;2383;48.632;10.156;2023-02-13T17:09:53;38.47;;;21.10;;
4738;SDS011;2383;48.632;10.156;2023-02-13T17:13:57;37.53;;;21.77;;
4738;SDS011;2383;48.632;10.156;2023-02-13T17:17:59;61.07;;;35.23;;
4738;SDS011;2383;48.632;10.156;2023-02-13T17:22:01;40.93;;;22.43;;
4738;SDS011;2383;48.632;10.156;2023-02-13T17:26:03;40.93;;;21.73;;
4738;SDS011;2383;48.632;10.156;2023-02-13T17:30:05;40.17;;;21.00;;
4738;SDS011;2383;48.632;10.156;2023-02-13T17:34:09;40.73;;;21.90;;
4738;SDS011;2383;48.632;10.156;2023-02-13T17:38:11;44.50;;;22.10;;
4738;SDS011;2383;48.632;10.156;2023-02-13T17:42:15;49.37;;;25.63;;
4738;SDS011;2383;48.632;10.156;2023-02-13T17:46:19;46.87;;;25.03;;
4738;SDS011;2383;48.632;10.156;2023-02-13T17:50:21;45.17;;;26.07;;
4738;SDS011;2383;48.632;10.156;2023-02-13T17:54:24;49.47;;;26.57;;
4738;SDS011;2383;48.632;10.156;2023-02-13T17:58:27;49.50;;;28.47;;
4738;SDS011;2383;48.632;10.156;2023-02-13T18:02:29;48.57;;;26.13;;
4738;SDS011;2383;48.632;10.156;2023-02-13T18:06:31;49.77;;;24.80;;
4738;SDS011;2383;48.632;10.156;2023-02-13T18:10:34;50.60;;;25.97;;
4738;SDS011;2383;48.632;10.156;2023-02-13T18:14:37;41.57;;;24.83;;
4738;SDS011;2383;48.632;10.156;2023-02-13T18:18:39;49.77;;;26.73;;
4738;SDS011;2383;48.632;10.156;2023-02-13T18:22:41;43.90;;;24.00;;
4738;SDS011;2383;48.632;10.156;2023-02-13T18:26:44;48.27;;;24.20;;
4738;SDS011;2383;48.632;10.156;2023-02-13T18:30:46;49.80;;;25.40;;
4738;SDS011;2383;48.632;10.156;2023-02-13T18:34:48;53.53;;;28.07;;
4738;SDS011;2383;48.632;10.156;2023-02-13T18:38:50;51.70;;;27.37;;
4738;SDS011;2383;48.632;10.156;2023-02-13T18:42:53;67.30;;;34.20;;
4738;SDS011;2383;48.632;10.156;2023-02-13T18:46:55;70.27;;;32.63;;
4738;SDS011;2383;48.632;10.156;2023-02-13T18:51:00;66.20;;;31.60;;
4738;SDS011;2383;48.632;10.156;2023-02-13T18:55:02;54.10;;;27.00;;
4738;SDS011;2383;48.632;10.156;2023-02-13T18:59:07;54.97;;;27.07;;
4738;SDS011;2383;48.632;10.156;2023-02-13T19:03:09;54.80;;;27.57;;
4738;SDS011;2383;48.632;10.156;2023-02-13T19:07:11;52.67;;;27.30;;
4738;SDS011;2383;48.632;10.156;2023-02-13T19:11:14;53.57;;;26.87;;
4738;SDS011;2383;48.632;10.156;2023-02-13T19:15:19;58.10;;;29.57;;
4738;SDS011;2383;48.632;10.156;2023-02-13T19:19:21;50.63;;;25.93;;
4738;SDS011;2383;48.632;10.156;2023-02-13T19:23:23;51.03;;;26.07;;
4738;SDS011;2383;48.632;10.156;2023-02-13T19:27:24;54.57;;;29.03;;
4738;SDS011;2383;48.632;10.156;2023-02-13T19:31:27;80.97;;;36.03;;
4738;SDS011;2383;48.632;10.156;2023-02-13T19:35:31;58.70;;;29.07;;
4738;SDS011;2383;48.632;10.156;2023-02-13T19:39:33;52.23;;;27.23;;
4738;SDS011;2383;48.632;10.156;2023-02-13T19:43:35;67.60;;;31.00;;
4738;SDS011;2383;48.632;10.156;2023-02-13T19:47:37;65.97;;;32.27;;
4738;SDS011;2383;48.632;10.156;2023-02-13T19:51:40;56.97;;;28.23;;
4738;SDS011;2383;48.632;10.156;2023-02-13T19:55:42;52.47;;;27.80;;
4738;SDS011;2383;48.632;10.156;2023-02-13T19:59:44;65.13;;;26.90;;
4738;SDS011;2383;48.632;10.156;2023-02-13T20:03:47;48.40;;;24.47;;
4738;SDS011;2383;48.632;10.156;2023-02-13T20:07:49;54.83;;;27.17;;
4738;SDS011;2383;48.632;10.156;2023-02-13T20:11:51;64.63;;;30.07;;
4738;SDS011;2383;48.632;10.156;2023-02-13T20:15:53;60.20;;;28.30;;
4738;SDS011;2383;48.632;10.156;2023-02-13T20:19:55;47.23;;;24.83;;
4738;SDS011;2383;48.632;10.156;2023-02-13T20:23:58;47.03;;;23.60;;
4738;SDS011;2383;48.632;10.156;2023-02-13T20:28:00;47.87;;;24.40;;
4738;SDS011;2383;48.632;10.156;2023-02-13T20:32:02;57.07;;;26.43;;
4738;SDS011;2383;48.632;10.156;2023-02-13T20:36:08;48.47;;;24.10;;
4738;SDS011;2383;48.632;10.156;2023-02-13T20:40:15;46.67;;;22.90;;
4738;SDS011;2383;48.632;10.156;2023-02-13T20:44:17;43.10;;;23.83;;
4738;SDS011;2383;48.632;10.156;2023-02-13T20:48:20;45.60;;;23.77;;
4738;SDS011;2383;48.632;10.156;2023-02-13T20:52:22;50.30;;;23.63;;
4738;SDS011;2383;48.632;10.156;2023-02-13T20:56:25;53.33;;;24.30;;
4738;SDS011;2383;48.632;10.156;2023-02-13T21:00:28;61.77;;;26.67;;
4738;SDS011;2383;48.632;10.156;2023-02-13T21:04:30;48.27;;;24.07;;
4738;SDS011;2383;48.632;10.156;2023-02-13T21:08:33;67.23;;;25.87;;
4738;SDS011;2383;48.632;10.156;2023-02-13T21:12:35;46.03;;;24.20;;
4738;SDS011;2383;48.632;10.156;2023-02-13T21:16:38;55.47;;;23.40;;
4738;SDS011;2383;48.632;10.156;2023-02-13T21:20:41;49.97;;;24.33;;
4738;SDS011;2383;48.632;10.156;2023-02-13T21:24:43;45.87;;;24.17;;
4738;SDS011;2383;48.632;10.156;2023-02-13T21:28:46;40.20;;;21.73;;
4738;SDS011;2383;48.632;10.156;2023-02-13T21:32:49;58.00;;;24.17;;
4738;SDS011;2383;48.632;10.156;2023-02-13T21:36:51;69.20;;;24.73;;
4738;SDS011;2383;48.632;10.156;2023-02-13T21:40:54;47.83;;;25.03;;
4738;SDS011;2383;48.632;10.156;2023-02-13T21:45:03;58.37;;;23.43;;
4738;SDS011;2383;48.632;10.156;2023-02-13T21:49:05;44.00;;;21.93;;
4738;SDS011;2383;48.632;10.156;2023-02-13T21:53:08;49.10;;;24.77;;
4738;SDS011;2383;48.632;10.156;2023-02-13T21:57:10;75.57;;;26.37;;
4738;SDS011;2383;48.632;10.156;2023-02-13T22:05:25;50.97;;;24.80;;
4738;SDS011;2383;48.632;10.156;2023-02-13T22:09:27;45.07;;;22.87;;
4738;SDS011;2383;48.632;10.156;2023-02-13T22:13:29;42.80;;;20.70;;
4738;SDS011;2383;48.632;10.156;2023-02-13T22:17:31;40.87;;;20.53;;
4738;SDS011;2383;48.632;10.156;2023-02-13T22:21:37;38.20;;;20.73;;
4738;SDS011;2383;48.632;10.156;2023-02-13T22:25:39;51.57;;;20.10;;
4738;SDS011;2383;48.632;10.156;2023-02-13T22:29:40;43.23;;;21.27;;
4738;SDS011;2383;48.632;10.156;2023-02-13T22:33:43;53.53;;;21.00;;
4738;SDS011;2383;48.632;10.156;2023-02-13T22:37:50;46.53;;;22.53;;
4738;SDS011;2383;48.632;10.156;2023-02-13T22:41:54;47.43;;;23.13;;
4738;SDS011;2383;48.632;10.156;2023-02-13T22:46:00;43.07;;;21.97;;
4738;SDS011;2383;48.632;10.156;2023-02-13T22:50:06;50.67;;;22.97;;
4738;SDS011;2383;48.632;10.156;2023-02-13T22:54:09;49.77;;;22.10;;
4738;SDS011;2383;48.632;10.156;2023-02-13T22:58:11;49.63;;;22.07;;
4738;SDS011;2383;48.632;10.156;2023-02-13T23:02:13;45.70;;;21.20;;
4738;SDS011;2383;48.632;10.156;2023-02-13T23:06:15;47.20;;;23.10;;
4738;SDS011;2383;48.632;10.156;2023-02-13T23:10:17;53.43;;;22.17;;
4738;SDS011;2383;48.632;10.156;2023-02-13T23:14:23;43.50;;;23.47;;
4738;SDS011;2383;48.632;10.156;2023-02-13T23:18:25;39.80;;;21.13;;
4738;SDS011;2383;48.632;10.156;2023-02-13T23:22:27;42.53;;;20.63;;
4738;SDS011;2383;48.632;10.156;2023-02-13T23:26:29;34.97;;;19.20;;
4738;SDS011;2383;48.632;10.156;2023-02-13T23:30:31;35.90;;;19.13;;
4738;SDS011;2383;48.632;10.156;2023-02-13T23:34:34;39.70;;;20.10;;
4738;SDS011;2383;48.632;10.156;2023-02-13T23:38:36;35.30;;;19.60;;
4738;SDS011;2383;48.632;10.156;2023-02-13T23:42:39;47.97;;;22.53;;
4738;SDS011;2383;48.632;10.156;2023-02-13T23:46:41;39.43;;;20.60;;
4738;SDS011;2383;48.632;10.156;2023-02-13T23:50:43;38.40;;;20.20;;
4738;SDS011;2383;48.632;10.156;2023-02-13T23:54:45;43.43;;;19.90;;
4738;SDS011;2383;48.632;10.156;2023-02-13T23:58:47;38.00;;;20.17;;
